Time;durP1;ratioP1;P1;durP2;ratioP2;P2;SDS_P1;SDS_P2;PMS_P1;PMS_P2;Temp;Humidity;BMP_temperature;BMP_pressure;BME280_temperature;BME280_humidity;BME280_pressure;Samples;Min_cycle;Max_cycle;Signal;HPM_P1;HPM_P2
2023/04/15 00:00:05;;;;;;;2.28;1.60;;;;;;;3.39;83.79;97682.88;5066800;28;20041;-70
2023/04/15 00:02:31;;;;;;;2.10;1.50;;;;;;;3.38;83.55;97686.41;5066844;28;20048;-71
2023/04/15 00:04:58;;;;;;;2.72;1.77;;;;;;;3.37;83.48;97690.81;5066199;28;20102;-72
2023/04/15 00:07:25;;;;;;;3.05;1.60;;;;;;;3.39;83.29;97688.09;5066183;28;20186;-71
2023/04/15 00:09:55;;;;;;;2.40;1.50;;;;;;;3.02;83.37;97640.28;5066174;28;20104;-71
2023/04/15 00:12:21;;;;;;;2.50;1.80;;;;;;;3.38;83.37;97696.88;5065981;28;20112;-70
2023/04/15 00:14:48;;;;;;;2.17;1.60;;;;;;;3.34;83.65;97696.19;5066036;28;20108;-71
2023/04/15 00:17:15;;;;;;;2.20;1.60;;;;;;;3.10;83.81;97661.66;5066853;28;20045;-71
2023/04/15 00:19:43;;;;;;;2.25;1.50;;;;;;;3.27;83.91;97696.59;5066331;28;21972;-72
2023/04/15 00:22:10;;;;;;;2.30;1.60;;;;;;;3.25;84.26;97694.06;5065951;28;20043;-71
2023/04/15 00:24:37;;;;;;;2.67;1.70;;;;;;;3.27;84.17;97694.81;5066119;28;20107;-71
2023/04/15 00:27:05;;;;;;;2.20;1.50;;;;;;;3.26;84.20;97692.28;5066037;28;20041;-71
2023/04/15 00:29:32;;;;;;;2.20;1.50;;;;;;;3.07;84.28;97661.84;5065821;28;20048;-71
2023/04/15 00:31:59;;;;;;;2.10;1.58;;;;;;;3.27;84.35;97686.97;5065759;28;20051;-70
2023/04/15 00:34:26;;;;;;;2.20;1.60;;;;;;;3.29;84.44;97700.84;5065681;28;20043;-71
2023/04/15 00:36:53;;;;;;;2.53;1.50;;;;;;;3.27;84.24;97702.69;5066269;28;20064;-71
2023/04/15 00:39:20;;;;;;;2.53;1.60;;;;;;;3.28;84.36;97701.75;5065680;28;20045;-72
2023/04/15 00:41:47;;;;;;;2.33;1.60;;;;;;;3.26;84.17;97708.84;5065821;28;20033;-72
2023/04/15 00:44:17;;;;;;;2.72;1.70;;;;;;;3.10;84.08;97674.75;5065402;28;20049;-72
2023/04/15 00:46:45;;;;;;;2.13;1.52;;;;;;;3.26;83.72;97705.38;5065583;28;20132;-72
2023/04/15 00:49:12;;;;;;;2.33;1.52;;;;;;;3.31;83.84;97717.31;5065239;28;20302;-70
2023/04/15 00:51:39;;;;;;;2.28;1.40;;;;;;;3.33;83.80;97723.31;5065863;28;20064;-70
2023/04/15 00:54:06;;;;;;;2.10;1.40;;;;;;;3.31;83.94;97716.47;5064605;28;20074;-70
2023/04/15 00:56:36;;;;;;;2.88;2.25;;;;;;;3.31;83.93;97721.69;5065749;28;20044;-70
2023/04/15 00:59:05;;;;;;;2.80;1.67;;;;;;;3.30;83.83;97735.72;5065996;28;20049;-70
2023/04/15 01:01:35;;;;;;;2.30;1.58;;;;;;;3.28;84.00;97727.94;5064459;28;20313;-71
2023/04/15 01:04:02;;;;;;;2.40;1.55;;;;;;;3.25;84.09;97720.25;5065677;28;20052;-71
2023/04/15 01:06:29;;;;;;;3.38;1.80;;;;;;;3.25;83.88;97724.63;5065292;28;20048;-71
2023/04/15 01:08:57;;;;;;;2.83;1.70;;;;;;;3.05;83.83;97694.25;5065428;28;20091;-71
2023/04/15 01:11:24;;;;;;;2.20;1.50;;;;;;;2.75;83.64;97660.00;5065272;28;20059;-70
2023/04/15 01:13:52;;;;;;;2.25;1.42;;;;;;;3.28;83.89;97725.31;5065542;28;20100;-71
2023/04/15 01:16:19;;;;;;;2.75;1.80;;;;;;;3.31;83.71;97735.63;5064658;28;20051;-71
2023/04/15 01:18:47;;;;;;;5.20;2.03;;;;;;;3.31;83.75;97733.03;5065442;28;20075;-70
2023/04/15 01:21:14;;;;;;;2.40;1.65;;;;;;;3.28;84.14;97725.31;5065435;28;20086;-71
2023/04/15 01:23:41;;;;;;;2.40;1.60;;;;;;;3.29;84.06;97744.50;5065489;28;20053;-71
2023/04/15 01:26:13;;;;;;;2.20;1.50;;;;;;;2.69;83.98;97645.47;5069423;28;20134;-70
2023/04/15 01:28:40;;;;;;;2.63;1.75;;;;;;;3.31;83.90;97753.13;5069208;28;20049;-72
2023/04/15 01:31:08;;;;;;;2.20;1.67;;;;;;;3.30;84.36;97756.66;5068605;28;20277;-70
2023/04/15 01:33:35;;;;;;;2.60;1.70;;;;;;;3.30;84.28;97761.91;5069238;28;20036;-71
2023/04/15 01:36:02;;;;;;;2.50;1.70;;;;;;;3.29;84.45;97747.13;5069324;28;20051;-70
2023/04/15 01:38:30;;;;;;;2.25;1.45;;;;;;;3.31;84.35;97751.34;5069306;28;20041;-71
2023/04/15 01:40:57;;;;;;;3.20;1.67;;;;;;;3.34;84.54;97743.34;5069431;28;20082;-71
2023/04/15 01:43:25;;;;;;;2.63;1.50;;;;;;;3.37;84.37;97745.78;5068738;28;20056;-71
2023/04/15 01:45:52;;;;;;;2.33;1.50;;;;;;;3.37;84.46;97751.03;5069398;28;20045;-71
2023/04/15 01:48:18;;;;;;;2.13;1.40;;;;;;;3.39;84.27;97767.50;5069102;28;20044;-71
2023/04/15 01:50:46;;;;;;;2.40;1.63;;;;;;;3.41;84.29;97749.94;5069301;28;20347;-72
2023/04/15 01:53:12;;;;;;;2.10;1.50;;;;;;;3.24;84.22;97723.78;5068998;28;20075;-71
2023/04/15 01:55:39;;;;;;;2.47;1.70;;;;;;;3.44;84.47;97756.81;5068759;28;20328;-70
2023/04/15 01:58:06;;;;;;;3.40;2.13;;;;;;;3.44;84.28;97755.03;5069238;28;20064;-71
2023/04/15 02:00:34;;;;;;;2.92;1.85;;;;;;;3.47;84.37;97765.34;5069143;28;20060;-71
2023/04/15 02:03:01;;;;;;;3.25;2.00;;;;;;;3.48;84.38;97748.69;5068834;28;20071;-71
2023/04/15 02:05:28;;;;;;;2.50;1.85;;;;;;;3.50;84.64;97753.88;5068775;28;20037;-71
2023/04/15 02:07:55;;;;;;;2.20;1.60;;;;;;;3.51;84.30;97755.56;5069028;28;20053;-72
2023/04/15 02:10:22;;;;;;;2.63;1.67;;;;;;;3.51;84.41;97756.41;5069002;28;20240;-72
2023/04/15 02:12:48;;;;;;;2.78;1.80;;;;;;;3.55;84.38;97762.31;5068423;28;20194;-72
2023/04/15 02:15:15;;;;;;;2.20;1.55;;;;;;;3.53;84.51;97767.66;5067501;28;20045;-71
2023/04/15 02:17:49;;;;;;;2.50;1.80;;;;;;;3.53;84.55;97759.78;5068591;28;20332;-72
2023/04/15 02:20:16;;;;;;;2.53;1.90;;;;;;;3.57;84.41;97767.50;5068208;28;20111;-72
2023/04/15 02:22:43;;;;;;;2.92;1.70;;;;;;;3.58;84.29;97770.03;5068212;28;20054;-72
2023/04/15 02:25:10;;;;;;;2.83;1.80;;;;;;;3.59;84.26;97773.50;5068715;28;20091;-72
2023/04/15 02:27:37;;;;;;;2.42;1.75;;;;;;;3.59;84.21;97774.34;5068383;28;20107;-71
2023/04/15 02:30:04;;;;;;;2.42;1.60;;;;;;;3.62;84.17;97781.19;5068079;28;20154;-71
2023/04/15 02:32:30;;;;;;;2.22;1.70;;;;;;;3.60;84.03;97781.28;5068359;28;20036;-71
2023/04/15 02:35:02;;;;;;;2.38;1.70;;;;;;;3.59;84.20;97784.81;5068122;28;20053;-71
2023/04/15 02:37:30;;;;;;;2.20;1.50;;;;;;;3.40;84.05;97750.03;5066822;28;20036;-71
2023/04/15 02:39:57;;;;;;;2.47;1.73;;;;;;;3.59;83.98;97784.81;5068093;28;20060;-71
2023/04/15 02:42:26;;;;;;;2.75;1.60;;;;;;;3.59;84.04;97789.22;5068017;28;20103;-70
2023/04/15 02:44:53;;;;;;;2.17;1.52;;;;;;;3.58;83.96;97790.97;5067922;28;20044;-72
2023/04/15 02:47:20;;;;;;;2.20;1.65;;;;;;;3.58;83.93;97795.38;5068064;28;20041;-72
2023/04/15 02:49:47;;;;;;;2.25;1.67;;;;;;;3.56;84.01;97790.22;5067892;28;20036;-71
2023/04/15 02:52:15;;;;;;;2.42;1.65;;;;;;;3.56;84.26;97792.00;5067938;28;20029;-72
2023/04/15 02:54:41;;;;;;;2.38;1.60;;;;;;;3.57;84.22;97785.81;5068162;28;20120;-72
2023/04/15 02:57:09;;;;;;;2.40;1.77;;;;;;;3.19;84.21;97728.41;5067822;28;20041;-71
2023/04/15 02:59:36;;;;;;;2.40;1.65;;;;;;;3.59;84.17;97794.44;5067503;28;20353;-71
2023/04/15 03:02:03;;;;;;;2.50;2.00;;;;;;;3.59;84.32;97791.84;5067941;28;20037;-71
2023/04/15 03:04:29;;;;;;;2.55;1.83;;;;;;;3.61;84.25;97795.22;5067395;28;20041;-71
2023/04/15 03:06:56;;;;;;;2.33;1.63;;;;;;;3.63;84.10;97794.22;5067650;28;20063;-71
2023/04/15 03:09:24;;;;;;;2.45;1.70;;;;;;;3.67;84.16;97800.13;5067072;28;20282;-71
2023/04/15 03:11:53;;;;;;;2.20;1.65;;;;;;;3.67;84.17;97797.53;5067581;28;20037;-72
2023/04/15 03:14:20;;;;;;;2.42;1.70;;;;;;;3.68;84.10;97809.69;5067618;28;20347;-71
2023/04/15 03:16:46;;;;;;;2.63;1.70;;;;;;;3.66;84.23;97803.69;5067767;28;20037;-71
2023/04/15 03:19:13;;;;;;;2.50;1.70;;;;;;;3.66;83.87;97804.53;5067174;28;20044;-71
2023/04/15 03:21:43;;;;;;;2.40;1.75;;;;;;;2.87;83.93;97685.56;5067038;28;20059;-71
2023/04/15 03:24:09;;;;;;;2.45;1.50;;;;;;;3.44;84.06;97770.75;5067363;28;20037;-72
2023/04/15 03:26:37;;;;;;;2.30;1.70;;;;;;;3.64;84.12;97803.75;5066987;28;20360;-71
2023/04/15 03:29:04;;;;;;;2.20;1.40;;;;;;;3.67;84.20;97802.75;5066144;28;20060;-72
2023/04/15 03:31:31;;;;;;;2.75;1.92;;;;;;;3.68;84.22;97800.06;5067316;28;20033;-72
2023/04/15 03:33:57;;;;;;;2.42;1.65;;;;;;;3.71;84.08;97805.13;5066931;28;20041;-72
2023/04/15 03:36:24;;;;;;;2.28;1.60;;;;;;;3.73;84.16;97810.31;5066015;28;20137;-71
2023/04/15 03:38:51;;;;;;;2.40;1.60;;;;;;;3.72;84.29;97806.84;5067365;28;20040;-71
2023/04/15 03:41:18;;;;;;;2.30;1.60;;;;;;;3.74;84.21;97814.63;5066373;28;20037;-71
2023/04/15 03:43:46;;;;;;;2.30;1.60;;;;;;;3.73;84.06;97810.31;5066582;28;20327;-71
2023/04/15 03:46:13;;;;;;;2.40;1.70;;;;;;;3.73;84.17;97807.69;5067205;28;20044;-72
2023/04/15 03:48:39;;;;;;;2.40;1.80;;;;;;;3.75;84.04;97811.06;5066911;28;20041;-72
2023/04/15 03:51:06;;;;;;;2.38;1.70;;;;;;;3.75;84.07;97811.91;5067054;28;20040;-71
2023/04/15 03:53:33;;;;;;;2.50;1.67;;;;;;;3.76;84.10;97816.22;5066517;28;20098;-71
2023/04/15 03:55:59;;;;;;;2.72;1.70;;;;;;;3.62;84.21;97789.06;5067016;28;20040;-72
2023/04/15 03:58:26;;;;;;;2.45;2.00;;;;;;;3.79;84.35;97817.84;5066909;28;20041;-72
2023/04/15 04:00:54;;;;;;;2.30;1.70;;;;;;;3.77;84.21;97817.91;5066346;28;20032;-71
2023/04/15 04:03:21;;;;;;;2.33;1.60;;;;;;;3.80;84.30;97816.91;5066867;28;20100;-71
2023/04/15 04:05:48;;;;;;;2.28;1.60;;;;;;;3.82;84.16;97818.53;5066250;28;20059;-71
2023/04/15 04:08:15;;;;;;;3.03;1.70;;;;;;;3.84;84.19;97823.69;5066191;28;20075;-72
2023/04/15 04:10:42;;;;;;;2.40;1.67;;;;;;;3.84;84.07;97824.53;5066714;28;20117;-71
2023/04/15 04:13:08;;;;;;;2.20;1.60;;;;;;;3.85;84.25;97828.84;5066392;28;20292;-71
2023/04/15 04:15:35;;;;;;;2.75;1.60;;;;;;;3.88;84.22;97832.25;5066134;28;20313;-71
2023/04/15 04:18:03;;;;;;;2.80;1.80;;;;;;;3.89;84.20;97826.91;5066549;28;20067;-72
2023/04/15 04:20:31;;;;;;;2.30;1.70;;;;;;;3.88;84.11;97833.09;5066024;28;20036;-71
2023/04/15 04:22:58;;;;;;;2.67;1.83;;;;;;;3.89;84.24;97836.56;5066122;28;20099;-71
2023/04/15 04:25:25;;;;;;;2.45;1.65;;;;;;;3.69;84.02;97821.88;5065956;28;20037;-71
2023/04/15 04:27:51;;;;;;;2.50;1.80;;;;;;;3.89;84.25;97842.66;5065942;28;20028;-72
2023/04/15 04:30:18;;;;;;;2.40;1.90;;;;;;;3.90;84.19;97843.50;5066065;28;20063;-72
2023/04/15 04:32:45;;;;;;;2.55;1.60;;;;;;;3.91;84.19;97851.28;5065810;28;20288;-71
2023/04/15 04:35:13;;;;;;;2.25;1.50;;;;;;;3.90;84.05;97854.81;5065878;28;20289;-72
2023/04/15 04:37:40;;;;;;;2.88;1.80;;;;;;;3.92;84.20;97860.84;5066250;28;20049;-72
2023/04/15 04:40:08;;;;;;;2.50;1.80;;;;;;;3.75;84.22;97832.03;5066206;28;20065;-72
2023/04/15 04:42:35;;;;;;;2.75;1.73;;;;;;;3.93;84.26;97862.53;5065745;28;20110;-71
2023/04/15 04:45:01;;;;;;;2.40;1.63;;;;;;;3.96;84.20;97877.25;5066106;28;20045;-71
2023/04/15 04:47:29;;;;;;;2.63;1.83;;;;;;;3.96;84.25;97870.22;5065507;28;20285;-71
2023/04/15 04:49:55;;;;;;;2.70;1.88;;;;;;;3.98;84.29;97872.78;5065731;28;20037;-72
2023/04/15 04:52:23;;;;;;;2.55;1.90;;;;;;;3.98;84.37;97868.38;5065432;28;20366;-72
2023/04/15 04:54:50;;;;;;;3.10;1.95;;;;;;;4.01;84.14;97875.22;5065115;28;20083;-72
2023/04/15 04:57:17;;;;;;;2.33;1.70;;;;;;;4.02;84.07;97876.94;5065930;28;20316;-71
2023/04/15 04:59:43;;;;;;;3.05;2.72;;;;;;;4.01;84.40;97883.94;5065304;28;20274;-71
2023/04/15 05:02:10;;;;;;;2.70;1.90;;;;;;;4.03;84.46;97876.84;5065509;28;20100;-71
2023/04/15 05:04:37;;;;;;;2.80;2.10;;;;;;;4.05;84.36;97880.22;5065857;28;20033;-72
2023/04/15 05:07:04;;;;;;;4.15;2.10;;;;;;;4.08;84.29;97879.22;5065302;28;20324;-71
2023/04/15 05:09:34;;;;;;;2.50;2.20;;;;;;;4.09;84.29;97873.06;5065001;28;20044;-72
2023/04/15 05:12:01;;;;;;;2.92;2.15;;;;;;;3.93;84.67;97845.94;5065562;28;20051;-72
2023/04/15 05:14:28;;;;;;;3.05;2.47;;;;;;;3.77;84.31;97817.91;5065845;28;20192;-71
2023/04/15 05:16:55;;;;;;;2.83;2.05;;;;;;;4.12;84.50;97873.75;5065832;28;20047;-71
2023/04/15 05:19:21;;;;;;;2.80;2.08;;;;;;;3.95;84.42;97846.72;5065515;28;20116;-71
2023/04/15 05:21:48;;;;;;;3.88;2.45;;;;;;;4.14;84.56;97871.88;5065353;28;20048;-72
2023/04/15 05:24:15;;;;;;;3.10;2.47;;;;;;;4.16;84.43;97874.44;5065745;28;20037;-72
2023/04/15 05:26:43;;;;;;;3.15;2.60;;;;;;;4.17;84.45;97876.13;5065167;28;20048;-71
2023/04/15 05:29:10;;;;;;;4.50;2.83;;;;;;;4.18;84.44;97883.91;5065528;28;20048;-72
2023/04/15 05:31:37;;;;;;;3.00;2.40;;;;;;;4.01;84.56;97852.47;5064830;28;20091;-72
2023/04/15 05:34:04;;;;;;;2.80;2.42;;;;;;;4.21;84.54;97895.19;5065046;28;20043;-72
2023/04/15 05:36:31;;;;;;;2.65;2.10;;;;;;;4.24;84.43;97892.41;5064984;28;20044;-72
2023/04/15 05:38:58;;;;;;;4.03;2.55;;;;;;;4.25;84.43;97894.09;5065401;28;20120;-72
2023/04/15 05:41:24;;;;;;;3.10;2.47;;;;;;;4.27;84.54;97897.50;5065188;28;20059;-72
2023/04/15 05:43:52;;;;;;;3.35;2.88;;;;;;;4.29;84.45;97906.13;5064819;28;20065;-72
2023/04/15 05:46:19;;;;;;;3.35;2.92;;;;;;;4.07;84.58;97865.28;5065517;28;20047;-71
2023/04/15 05:48:46;;;;;;;2.90;2.30;;;;;;;4.32;84.45;97898.09;5065321;28;20049;-72
2023/04/15 05:51:12;;;;;;;3.30;2.75;;;;;;;4.34;84.52;97897.09;5065253;28;20356;-72
2023/04/15 05:53:40;;;;;;;3.28;2.90;;;;;;;4.35;84.57;97901.41;5065233;28;20048;-72
2023/04/15 05:56:07;;;;;;;3.10;2.72;;;;;;;4.02;84.62;97841.06;5065464;28;20281;-72
2023/04/15 05:58:34;;;;;;;3.40;2.45;;;;;;;4.38;84.71;97909.13;5064945;28;20044;-72
2023/04/15 06:01:02;;;;;;;3.42;2.70;;;;;;;4.41;84.58;97898.47;5064860;28;20041;-71
2023/04/15 06:03:29;;;;;;;2.78;2.15;;;;;;;4.43;84.68;97904.47;5064952;28;20293;-71
2023/04/15 06:05:56;;;;;;;3.55;2.42;;;;;;;4.45;84.58;97902.59;5065049;28;20045;-72
2023/04/15 06:08:22;;;;;;;3.10;2.70;;;;;;;4.47;84.73;97913.03;5065284;28;20044;-72
2023/04/15 06:10:49;;;;;;;3.70;2.70;;;;;;;4.49;84.78;97913.78;5066266;28;20044;-71
2023/04/15 06:13:16;;;;;;;4.03;3.08;;;;;;;4.51;84.65;97914.56;5068699;28;20107;-71
2023/04/15 06:15:43;;;;;;;3.53;2.90;;;;;;;4.54;84.61;97916.16;5068374;28;20056;-72
2023/04/15 06:18:11;;;;;;;3.50;2.70;;;;;;;4.54;84.55;97921.41;5068879;28;20273;-71
2023/04/15 06:20:38;;;;;;;3.47;2.70;;;;;;;4.55;84.69;97921.34;5068735;28;20053;-71
2023/04/15 06:23:05;;;;;;;3.05;2.38;;;;;;;4.56;84.63;97915.16;5068530;28;20037;-72
2023/04/15 06:25:32;;;;;;;3.05;2.10;;;;;;;4.57;84.58;97924.72;5068312;28;20037;-71
2023/04/15 06:27:58;;;;;;;3.20;2.60;;;;;;;4.59;84.59;97920.25;5068290;28;20049;-72
2023/04/15 06:30:25;;;;;;;4.43;2.90;;;;;;;4.42;84.73;97894.91;5067752;28;20037;-72
2023/04/15 06:32:52;;;;;;;3.30;2.70;;;;;;;4.64;84.67;97928.72;5068235;28;20289;-71
2023/04/15 06:35:20;;;;;;;3.63;3.13;;;;;;;4.66;84.78;97926.84;5068198;28;20186;-71
2023/04/15 06:37:46;;;;;;;5.28;3.08;;;;;;;4.69;84.59;97929.31;5067877;28;20041;-71
2023/04/15 06:40:13;;;;;;;3.70;3.10;;;;;;;4.71;84.73;97924.81;5067727;28;20174;-72
2023/04/15 06:42:40;;;;;;;5.13;2.95;;;;;;;4.74;84.73;97926.44;5067800;28;20107;-72
2023/04/15 06:45:08;;;;;;;4.07;2.95;;;;;;;4.78;84.89;97920.09;5068328;28;20048;-71
2023/04/15 06:47:35;;;;;;;3.65;2.90;;;;;;;4.81;84.82;97920.78;5067890;28;20041;-71
2023/04/15 06:50:02;;;;;;;3.75;2.95;;;;;;;4.64;84.63;97894.59;5067680;28;20047;-71
2023/04/15 06:52:31;;;;;;;3.30;2.60;;;;;;;4.85;84.54;97936.34;5067922;28;20059;-72
2023/04/15 06:54:58;;;;;;;3.22;2.67;;;;;;;4.86;84.42;97936.28;5067888;28;20047;-71
2023/04/15 06:57:25;;;;;;;3.35;2.50;;;;;;;4.88;84.46;97934.41;5068124;28;20045;-72
2023/04/15 06:59:53;;;;;;;3.33;2.50;;;;;;;4.89;84.43;97935.25;5067826;28;20107;-71
2023/04/15 07:02:20;;;;;;;3.45;2.70;;;;;;;4.41;84.37;97869.59;5067873;28;20041;-72
2023/04/15 07:04:47;;;;;;;3.50;3.20;;;;;;;4.90;84.38;97942.22;5067611;28;20040;-71
2023/04/15 07:07:14;;;;;;;3.17;2.60;;;;;;;4.91;84.36;97939.53;5067782;28;20052;-70
2023/04/15 07:09:42;;;;;;;3.38;3.03;;;;;;;4.95;84.30;97937.56;5067307;28;20045;-72
2023/04/15 07:12:09;;;;;;;3.67;2.80;;;;;;;4.93;84.15;97939.44;5067274;28;20036;-71
2023/04/15 07:14:36;;;;;;;3.05;2.35;;;;;;;4.97;84.01;97944.44;5067489;28;20049;-71
2023/04/15 07:17:02;;;;;;;3.63;2.38;;;;;;;4.99;84.09;97946.97;5067407;28;20041;-72
2023/04/15 07:19:29;;;;;;;2.92;2.22;;;;;;;5.02;84.28;97946.81;5067337;28;20032;-71
2023/04/15 07:21:56;;;;;;;3.30;2.70;;;;;;;5.05;84.04;97955.38;5066709;28;20049;-71
2023/04/15 07:24:25;;;;;;;3.53;2.60;;;;;;;4.90;83.86;97927.31;5067172;28;20057;-72
2023/04/15 07:26:54;;;;;;;3.17;2.50;;;;;;;5.10;84.00;97952.47;5066994;28;20287;-71
2023/04/15 07:29:21;;;;;;;3.20;2.60;;;;;;;5.11;83.83;97947.16;5066832;28;20106;-71
2023/04/15 07:31:47;;;;;;;2.92;2.42;;;;;;;5.14;83.54;97956.63;5067450;28;20041;-72
2023/04/15 07:34:15;;;;;;;2.97;2.38;;;;;;;5.16;83.62;97959.19;5067409;28;20041;-71
2023/04/15 07:36:42;;;;;;;3.10;2.35;;;;;;;5.16;83.75;97965.28;5066638;28;20094;-72
2023/04/15 07:39:08;;;;;;;5.15;3.28;;;;;;;4.62;83.83;97877.25;5066685;28;20055;-71
2023/04/15 07:41:35;;;;;;;3.97;2.85;;;;;;;5.21;83.67;97965.88;5067316;28;20072;-69
2023/04/15 07:44:04;;;;;;;5.43;2.90;;;;;;;5.22;83.72;97967.56;5066436;28;20049;-70
2023/04/15 07:46:30;;;;;;;3.17;2.53;;;;;;;4.84;83.67;97905.78;5066760;28;20041;-70
2023/04/15 07:48:57;;;;;;;4.22;2.65;;;;;;;5.23;83.82;97978.91;5066494;28;20037;-70
2023/04/15 07:51:24;;;;;;;3.10;2.35;;;;;;;5.24;83.69;97970.09;5066439;28;20108;-70
2023/04/15 07:53:51;;;;;;;4.53;3.42;;;;;;;5.25;84.07;97975.28;5066698;28;20056;-70
2023/04/15 07:56:18;;;;;;;3.30;2.60;;;;;;;5.13;83.67;97949.69;5066906;28;20036;-70
2023/04/15 07:58:45;;;;;;;3.53;2.45;;;;;;;5.33;83.86;97983.56;5065639;28;20083;-71
2023/04/15 08:01:13;;;;;;;3.08;2.50;;;;;;;5.37;83.70;97977.22;5066513;28;20297;-70
2023/04/15 08:03:39;;;;;;;3.25;2.35;;;;;;;5.38;83.70;97981.53;5066358;28;20045;-69
2023/04/15 08:06:06;;;;;;;3.70;2.85;;;;;;;5.23;83.43;97950.03;5066248;28;20045;-70
2023/04/15 08:08:33;;;;;;;3.88;2.50;;;;;;;5.44;83.74;97983.81;5066735;28;20064;-70
2023/04/15 08:11:00;;;;;;;2.75;2.25;;;;;;;5.50;84.09;97987.88;5066250;28;20036;-70
2023/04/15 08:13:27;;;;;;;3.35;2.50;;;;;;;5.50;83.83;97987.88;5066058;28;20163;-70
2023/04/15 08:16:16;;;;;;;3.60;2.28;;;;;;;5.58;84.02;97988.31;5066051;28;20388;-69
2023/04/15 08:18:42;;;;;;;9.15;6.32;;;;;;;5.64;83.46;97993.22;5066532;28;20040;-70
2023/04/15 08:21:10;;;;;;;5.60;3.80;;;;;;;5.70;83.47;97997.28;5066312;28;20059;-70
2023/04/15 08:23:37;;;;;;;5.60;4.40;;;;;;;5.71;83.31;97991.94;5066010;28;20328;-69
2023/04/15 08:26:04;;;;;;;4.72;2.92;;;;;;;5.70;82.92;98000.75;5065747;28;20044;-70
2023/04/15 08:28:30;;;;;;;3.33;2.72;;;;;;;5.71;82.99;97999.81;5065795;28;20056;-70
2023/04/15 08:30:57;;;;;;;3.58;2.92;;;;;;;5.74;83.07;97994.38;5065810;28;20049;-70
2023/04/15 08:33:25;;;;;;;3.22;2.40;;;;;;;5.80;83.09;98001.06;5065870;28;20033;-70
2023/04/15 08:35:52;;;;;;;3.08;2.40;;;;;;;5.81;82.85;97996.66;5065629;28;20059;-70
2023/04/15 08:38:18;;;;;;;3.63;2.63;;;;;;;5.82;82.66;97998.34;5065777;28;20040;-70
2023/04/15 08:40:46;;;;;;;3.22;2.60;;;;;;;5.64;82.52;97974.81;5065693;28;20094;-70
2023/04/15 08:43:23;;;;;;;3.00;2.40;;;;;;;5.63;82.27;97977.53;5065550;28;20056;-70
2023/04/15 08:45:51;;;;;;;2.97;2.40;;;;;;;5.80;82.40;98010.75;5066046;28;20323;-70
2023/04/15 08:48:19;;;;;;;3.45;2.72;;;;;;;5.82;82.54;98007.09;5065782;28;20047;-70
2023/04/15 08:50:47;;;;;;;2.95;2.45;;;;;;;5.04;82.26;97874.06;5065645;28;20047;-69
2023/04/15 08:53:15;;;;;;;3.13;2.35;;;;;;;5.84;82.12;98015.75;5065929;28;20056;-70
2023/04/15 08:55:44;;;;;;;3.13;2.13;;;;;;;5.78;81.95;98022.19;5065427;28;20204;-69
2023/04/15 08:58:12;;;;;;;3.10;2.30;;;;;;;5.78;81.89;98016.09;5065479;28;20067;-69
2023/04/15 09:00:39;;;;;;;3.47;2.78;;;;;;;5.82;82.17;98036.00;5065040;28;20060;-70
2023/04/15 09:03:06;;;;;;;3.83;2.78;;;;;;;4.00;81.75;97724.97;5065771;28;20083;-70
2023/04/15 09:05:34;;;;;;;2.47;1.85;;;;;;;5.84;81.44;98022.78;5065781;28;20059;-72
2023/04/15 09:08:03;;;;;;;2.40;1.70;;;;;;;5.75;80.22;98025.00;5065371;28;20208;-71
2023/04/15 09:10:30;;;;;;;2.72;1.75;;;;;;;5.74;80.45;98028.56;5065135;28;20037;-71
2023/04/15 09:12:57;;;;;;;2.60;1.90;;;;;;;5.61;80.35;98006.53;5065112;28;20315;-72
2023/04/15 09:15:26;;;;;;;2.30;1.73;;;;;;;5.74;79.61;98031.19;5065485;28;20232;-70
2023/04/15 09:17:53;;;;;;;2.33;1.70;;;;;;;5.61;79.73;98013.56;5065121;28;20040;-70
2023/04/15 09:20:20;;;;;;;3.85;2.00;;;;;;;5.78;79.96;98040.59;5065477;28;20064;-71
2023/04/15 09:22:48;;;;;;;2.75;1.92;;;;;;;5.81;79.70;98041.34;5065303;28;20279;-71
2023/04/15 09:25:42;;;;;;;2.45;1.90;;;;;;;5.81;79.21;98036.94;5065606;28;20045;-71
2023/04/15 09:28:09;;;;;;;3.10;2.42;;;;;;;5.85;79.97;98045.50;5065033;28;20048;-71
2023/04/15 09:30:35;;;;;;;2.90;1.88;;;;;;;5.90;80.15;98043.47;5065283;28;20293;-70
2023/04/15 09:33:06;;;;;;;2.80;2.00;;;;;;;5.99;80.12;98046.41;5064921;28;20240;-71
2023/04/15 09:35:34;;;;;;;5.90;2.35;;;;;;;5.96;80.17;98030.81;5065442;28;20289;-70
2023/04/15 09:38:06;;;;;;;2.63;1.80;;;;;;;6.08;79.43;98047.66;5065025;28;20044;-71
2023/04/15 09:40:35;;;;;;;2.63;1.95;;;;;;;6.10;79.33;98053.69;5065129;28;20201;-71
2023/04/15 09:43:03;;;;;;;2.47;1.80;;;;;;;6.13;79.52;98044.78;5064907;28;20079;-70
2023/04/15 09:45:31;;;;;;;2.33;1.80;;;;;;;6.16;79.10;98052.50;5066072;28;20395;-70
2023/04/15 09:47:58;;;;;;;2.67;1.75;;;;;;;6.18;79.46;98054.09;5068885;28;20052;-71
2023/04/15 09:50:28;;;;;;;2.95;2.10;;;;;;;6.22;79.38;98052.97;5069065;28;20041;-71
2023/04/15 09:52:55;;;;;;;2.70;1.75;;;;;;;6.05;78.99;98024.19;5068999;28;20321;-71
2023/04/15 09:55:22;;;;;;;2.78;2.15;;;;;;;6.25;79.29;98071.22;5068979;28;20270;-71
2023/04/15 09:57:50;;;;;;;3.20;2.03;;;;;;;6.24;78.97;98059.00;5069216;28;20108;-70
2023/04/15 10:00:17;;;;;;;2.50;1.80;;;;;;;6.24;78.92;98066.03;5067867;28;20356;-71
2023/04/15 10:02:45;;;;;;;2.83;1.90;;;;;;;6.23;78.87;98062.56;5068480;28;20071;-71
2023/04/15 10:05:15;;;;;;;2.80;2.00;;;;;;;6.24;78.93;98071.31;5068400;28;20247;-71
2023/04/15 10:07:42;;;;;;;3.47;2.28;;;;;;;6.23;78.65;98074.88;5068885;28;20056;-71
2023/04/15 10:10:11;;;;;;;3.00;2.00;;;;;;;6.15;78.34;98066.56;5068919;28;20045;-71
2023/04/15 10:12:39;;;;;;;2.80;1.95;;;;;;;6.16;78.33;98077.00;5068233;28;20087;-71
2023/04/15 10:15:15;;;;;;;2.88;2.10;;;;;;;6.17;78.33;98078.72;5068571;28;20382;-71
2023/04/15 10:17:44;;;;;;;3.00;2.08;;;;;;;6.17;78.41;98077.84;5068552;28;20063;-71
2023/04/15 10:20:13;;;;;;;5.80;3.03;;;;;;;6.18;78.46;98083.03;5069068;28;20071;-71
2023/04/15 10:22:42;;;;;;;2.95;1.90;;;;;;;6.18;78.43;98075.13;5068344;28;20041;-71
2023/04/15 10:25:10;;;;;;;2.45;1.70;;;;;;;6.19;78.44;98081.25;5068425;28;20197;-70
2023/04/15 10:27:39;;;;;;;2.50;1.70;;;;;;;5.85;78.28;98029.72;5068062;28;20052;-71
2023/04/15 10:30:09;;;;;;;2.42;1.60;;;;;;;5.44;78.29;97967.22;5067866;28;20048;-71
2023/04/15 10:32:36;;;;;;;2.63;1.80;;;;;;;5.69;77.98;98008.72;5067988;28;20171;-70
2023/04/15 10:35:03;;;;;;;2.90;1.92;;;;;;;6.22;77.89;98091.59;5068193;28;20040;-71
2023/04/15 10:37:35;;;;;;;2.58;1.90;;;;;;;6.23;77.84;98098.56;5067807;28;20036;-70
2023/04/15 10:40:26;;;;;;;3.65;1.90;;;;;;;5.95;77.53;98047.53;5068120;28;20166;-71
2023/04/15 10:42:53;;;;;;;3.17;1.80;;;;;;;6.28;78.32;98094.72;5067545;28;20119;-73
2023/04/15 10:45:22;;;;;;;2.42;1.65;;;;;;;6.15;78.23;98067.41;5067746;28;20334;-73
2023/04/15 10:47:53;;;;;;;3.28;1.70;;;;;;;6.17;78.08;98065.56;5067657;28;20045;-73
2023/04/15 10:50:20;;;;;;;2.63;1.70;;;;;;;6.39;78.30;98096.72;5067645;28;20041;-72
2023/04/15 10:52:50;;;;;;;3.25;1.70;;;;;;;6.39;78.13;98094.09;5067760;28;20184;-72
2023/04/15 10:55:20;;;;;;;2.50;1.77;;;;;;;6.05;78.07;98037.31;5067929;28;20181;-72
2023/04/15 10:57:47;;;;;;;4.10;2.00;;;;;;;6.42;78.28;98092.13;5066497;28;20037;-72
2023/04/15 11:00:15;;;;;;;2.70;1.83;;;;;;;6.46;78.27;98098.06;5067328;28;20051;-72
2023/04/15 11:02:46;;;;;;;3.00;1.95;;;;;;;6.50;78.53;98101.38;5067591;28;20048;-72
2023/04/15 11:05:14;;;;;;;2.55;1.77;;;;;;;6.52;78.69;98108.25;5067316;28;20049;-72
2023/04/15 11:07:48;;;;;;;2.88;1.70;;;;;;;6.49;77.84;98108.41;5067931;28;20040;-72
2023/04/15 11:10:48;;;;;;;3.50;2.30;;;;;;;6.49;78.12;98110.19;5067226;28;20041;-72
2023/04/15 11:13:17;;;;;;;2.40;1.63;;;;;;;6.46;78.12;98113.00;5067297;28;20052;-72
2023/04/15 11:15:45;;;;;;;6.03;1.80;;;;;;;6.47;78.57;98120.81;5067539;28;20056;-71
2023/04/15 11:18:15;;;;;;;2.33;1.77;;;;;;;6.50;78.48;98119.78;5067671;28;20311;-71
2023/04/15 11:20:43;;;;;;;2.60;1.70;;;;;;;6.51;78.39;98119.72;5066968;28;20061;-71
2023/04/15 11:23:10;;;;;;;2.47;1.75;;;;;;;6.54;78.28;98116.03;5066888;28;20335;-72
2023/04/15 11:25:37;;;;;;;2.88;1.90;;;;;;;6.53;78.16;98104.66;5067186;28;20037;-71
2023/04/15 11:28:04;;;;;;;2.95;1.83;;;;;;;6.43;78.25;98098.25;5067044;28;20094;-72
2023/04/15 11:30:33;;;;;;;2.75;1.63;;;;;;;6.55;78.20;98121.22;5066869;28;20036;-72
2023/04/15 11:33:04;;;;;;;2.60;1.70;;;;;;;6.56;78.08;98116.81;5066962;28;20039;-72
2023/04/15 11:35:32;;;;;;;2.40;1.70;;;;;;;5.66;78.11;97972.94;5066875;28;20327;-72
2023/04/15 11:38:04;;;;;;;2.60;1.77;;;;;;;6.54;77.96;98145.84;5066763;28;20037;-72
2023/04/15 11:40:32;;;;;;;2.58;1.98;;;;;;;6.54;78.09;98123.94;5066392;28;20044;-72
2023/04/15 11:43:05;;;;;;;2.67;1.70;;;;;;;6.57;78.18;98127.25;5066880;28;20243;-71